Time;durP1;ratioP1;P1;durP2;ratioP2;P2;SDS_P1;SDS_P2;PMS_P1;PMS_P2;Temp;Humidity;BMP_temperature;BMP_pressure;BME280_temperature;BME280_humidity;BME280_pressure;Samples;Min_cycle;Max_cycle;Signal;HPM_P1;HPM_P2
2022/05/12 00:01:21;;;;;;;3.27;1.00;;;20.80;58.70;;;;;;5033071;28;20193;-76
2022/05/12 00:03:47;;;;;;;4.00;1.00;;;20.80;59.50;;;;;;5051884;23;20221;-73
2022/05/12 00:06:13;;;;;;;2.43;0.80;;;20.70;59.70;;;;;;5030741;28;20177;-73
2022/05/12 00:08:39;;;;;;;2.70;0.73;;;20.60;60.00;;;;;;5030784;28;20188;-73
2022/05/12 00:11:05;;;;;;;5.37;1.10;;;20.60;61.50;;;;;;5029262;28;20180;-73
2022/05/12 00:13:30;;;;;;;3.73;0.80;;;20.50;61.80;;;;;;5029029;28;21179;-72
2022/05/12 00:15:58;;;;;;;2.27;0.70;;;20.40;62.50;;;;;;5030998;28;20252;-73
2022/05/12 00:18:24;;;;;;;2.70;0.97;;;20.40;63.30;;;;;;5022529;28;20581;-73
2022/05/12 00:20:50;;;;;;;2.97;1.00;;;20.30;64.90;;;;;;5024185;28;20639;-73
2022/05/12 00:23:20;;;;;;;2.80;0.90;;;20.20;65.70;;;;;;5034399;28;20709;-73
2022/05/12 00:25:48;;;;;;;1.70;0.80;;;20.20;65.90;;;;;;5019523;28;20197;-73
2022/05/12 00:28:19;;;;;;;4.73;1.50;;;20.10;66.90;;;;;;5034947;28;20576;-73
2022/05/12 00:30:48;;;;;;;2.40;0.97;;;20.10;67.80;;;;;;5033388;28;20584;-73
2022/05/12 00:33:15;;;;;;;3.00;1.30;;;20.00;68.90;;;;;;5016326;28;20620;-73
2022/05/12 00:35:43;;;;;;;2.90;0.80;;;20.00;69.50;;;;;;5002120;28;20584;-73
2022/05/12 00:38:10;;;;;;;3.40;0.90;;;19.90;70.20;;;;;;5034643;28;20630;-73
2022/05/12 00:40:41;;;;;;;3.80;1.07;;;19.90;71.40;;;;;;5032891;28;20607;-73
2022/05/12 00:43:29;;;;;;;2.73;0.90;;;19.90;72.10;;;;;;5034067;28;20667;-73
2022/05/12 00:45:55;;;;;;;1.87;0.80;;;19.90;72.80;;;;;;5005110;28;20584;-73
2022/05/12 00:48:21;;;;;;;1.93;0.83;;;19.80;73.50;;;;;;5034644;28;20591;-73
2022/05/12 00:50:47;;;;;;;1.93;0.70;;;19.80;74.30;;;;;;5033952;28;20192;-73
2022/05/12 00:53:14;;;;;;;2.53;0.80;;;19.80;75.40;;;;;;5034076;28;20609;-73
2022/05/12 00:55:43;;;;;;;2.23;0.93;;;19.70;76.10;;;;;;5001629;28;21146;-73
2022/05/12 00:58:11;;;;;;;2.40;0.60;;;19.70;77.00;;;;;;5034350;28;21151;-73
2022/05/12 01:00:37;;;;;;;4.20;0.80;;;19.70;77.70;;;;;;5033849;28;20576;-73
2022/05/12 01:03:08;;;;;;;4.10;0.80;;;19.60;78.60;;;;;;5033061;28;20644;-73
2022/05/12 01:05:34;;;;;;;3.43;0.83;;;19.60;79.20;;;;;;5032808;28;20667;-74
2022/05/12 01:08:02;;;;;;;2.27;0.70;;;19.60;79.20;;;;;;5033903;28;20573;-73
2022/05/12 01:10:29;;;;;;;3.40;0.80;;;19.60;80.20;;;;;;5033737;28;20664;-73
2022/05/12 01:12:55;;;;;;;1.73;0.70;;;19.60;80.70;;;;;;5033085;28;21182;-73
2022/05/12 01:15:24;;;;;;;2.23;0.70;;;19.60;81.10;;;;;;5032729;28;20588;-74
2022/05/12 01:18:00;;;;;;;3.27;0.80;;;19.60;82.40;;;;;;5028528;28;20601;-73
2022/05/12 01:20:27;;;;;;;2.30;0.80;;;19.60;83.40;;;;;;5026122;28;20571;-73
2022/05/12 01:23:05;;;;;;;5.70;0.90;;;19.50;83.70;;;;;;5033267;28;21186;-73
2022/05/12 01:25:31;;;;;;;2.57;0.93;;;19.50;85.40;;;;;;5033677;28;21196;-73
2022/05/12 01:27:57;;;;;;;4.97;2.33;;;19.50;84.60;;;;;;5048920;28;20580;-73
2022/05/12 01:30:25;;;;;;;3.37;0.80;;;19.50;85.60;;;;;;5048822;28;20586;-73
2022/05/12 01:32:51;;;;;;;3.47;1.20;;;19.40;86.20;;;;;;5032322;28;20614;-73
2022/05/12 01:35:19;;;;;;;4.70;0.90;;;19.50;86.80;;;;;;5033367;28;20615;-73
2022/05/12 01:37:46;;;;;;;4.77;1.20;;;19.50;87.80;;;;;;5033729;28;20661;-74
2022/05/12 01:40:16;;;;;;;3.30;1.23;;;19.40;88.10;;;;;;5033409;28;20596;-73
2022/05/12 01:42:42;;;;;;;2.57;1.10;;;19.40;89.20;;;;;;5033520;28;20624;-73
2022/05/12 01:45:09;;;;;;;2.50;1.13;;;19.30;88.90;;;;;;5032746;28;20575;-73
2022/05/12 01:47:35;;;;;;;3.50;1.33;;;19.30;89.50;;;;;;5033284;28;20596;-73
2022/05/12 01:50:02;;;;;;;7.53;1.57;;;19.30;89.90;;;;;;5033156;28;20557;-73
2022/05/12 01:52:27;;;;;;;2.73;0.90;;;19.30;90.20;;;;;;5024771;28;20565;-73
2022/05/12 01:54:53;;;;;;;5.10;1.30;;;19.20;90.40;;;;;;5012922;28;20565;-73
2022/05/12 01:57:19;;;;;;;4.20;1.40;;;19.20;90.90;;;;;;5013610;28;20645;-73
2022/05/12 01:59:45;;;;;;;2.63;1.40;;;19.20;91.00;;;;;;5013420;28;20198;-73
2022/05/12 02:02:10;;;;;;;2.67;1.13;;;19.10;91.20;;;;;;5013515;28;20166;-73
2022/05/12 02:04:36;;;;;;;2.23;1.07;;;19.10;91.40;;;;;;5013975;28;20588;-74
2022/05/12 02:07:02;;;;;;;2.47;1.10;;;19.10;91.30;;;;;;5013333;28;20190;-74
2022/05/12 02:09:28;;;;;;;4.47;1.30;;;19.00;91.30;;;;;;5012040;28;20182;-75
2022/05/12 02:11:53;;;;;;;2.10;1.33;;;19.00;91.50;;;;;;5013203;28;20571;-74
2022/05/12 02:14:19;;;;;;;3.10;1.50;;;18.90;91.70;;;;;;5011705;28;20662;-75
2022/05/12 02:16:45;;;;;;;3.30;1.37;;;18.90;91.70;;;;;;5012931;28;20232;-75
2022/05/12 02:19:11;;;;;;;4.00;1.10;;;18.90;91.90;;;;;;5028401;28;20186;-75
2022/05/12 02:21:38;;;;;;;2.40;1.23;;;18.80;92.10;;;;;;5011715;28;20185;-74
2022/05/12 02:24:04;;;;;;;3.63;1.27;;;18.70;92.00;;;;;;5012563;28;20727;-75
2022/05/12 02:26:30;;;;;;;2.77;1.50;;;18.70;92.50;;;;;;5013114;28;20582;-74
2022/05/12 02:28:56;;;;;;;3.40;1.20;;;18.70;92.70;;;;;;5011808;28;20576;-74
2022/05/12 02:31:23;;;;;;;1.90;1.10;;;18.60;92.50;;;;;;5011288;28;20585;-74
2022/05/12 02:33:48;;;;;;;5.33;1.97;;;18.60;92.60;;;;;;5012329;28;20695;-74
2022/05/12 02:36:14;;;;;;;3.00;1.00;;;18.50;92.70;;;;;;5011819;28;20673;-75
2022/05/12 02:38:40;;;;;;;5.53;1.43;;;18.40;92.80;;;;;;5012795;28;20237;-74
2022/05/12 02:41:06;;;;;;;3.23;1.53;;;18.40;92.80;;;;;;5012429;28;20178;-74
2022/05/12 02:43:32;;;;;;;5.93;2.13;;;18.20;93.00;;;;;;5012048;28;20320;-74
2022/05/12 02:46:05;;;;;;;3.97;2.10;;;18.20;93.00;;;;;;5027910;28;20558;-75
2022/05/12 02:48:34;;;;;;;3.73;1.80;;;18.10;93.40;;;;;;5011573;28;20170;-74
2022/05/12 02:51:00;;;;;;;5.40;1.80;;;18.00;93.50;;;;;;5012263;28;20568;-74
2022/05/12 02:53:28;;;;;;;4.70;1.90;;;17.90;93.50;;;;;;5010638;28;20604;-74
2022/05/12 02:55:54;;;;;;;3.43;1.40;;;17.80;93.90;;;;;;5012617;28;21042;-74
2022/05/12 02:58:20;;;;;;;3.87;1.40;;;17.70;94.00;;;;;;5012415;28;20570;-74
2022/05/12 03:00:46;;;;;;;2.87;1.80;;;17.60;94.00;;;;;;5012055;28;20584;-74
2022/05/12 03:03:12;;;;;;;4.20;1.77;;;17.50;94.20;;;;;;5011688;28;20198;-74
2022/05/12 03:05:39;;;;;;;2.30;1.43;;;17.40;94.40;;;;;;5012365;28;20561;-74
2022/05/12 03:08:06;;;;;;;5.27;1.80;;;17.30;94.60;;;;;;5012398;28;20572;-74
2022/05/12 03:10:33;;;;;;;3.83;2.17;;;17.20;94.70;;;;;;5011909;28;20627;-75
2022/05/12 03:12:59;;;;;;;2.63;1.80;;;17.20;95.00;;;;;;5011651;28;20635;-74
2022/05/12 03:15:24;;;;;;;4.77;2.03;;;17.10;95.20;;;;;;5012001;28;20941;-74
2022/05/12 03:17:51;;;;;;;5.17;2.00;;;17.00;95.40;;;;;;5012045;28;20585;-74
2022/05/12 03:20:20;;;;;;;5.23;1.90;;;16.90;95.50;;;;;;5011762;28;20178;-74
2022/05/12 03:22:47;;;;;;;6.60;2.30;;;16.90;96.00;;;;;;5027032;28;20633;-74
2022/05/12 03:25:15;;;;;;;5.10;2.40;;;16.80;96.00;;;;;;5011517;28;20600;-74
2022/05/12 03:27:41;;;;;;;5.07;2.30;;;16.70;96.20;;;;;;5010828;28;20558;-74
2022/05/12 03:30:18;;;;;;;3.70;1.70;;;16.70;96.50;;;;;;5011619;28;20170;-74
2022/05/12 03:32:44;;;;;;;4.00;1.60;;;16.70;96.70;;;;;;5011909;28;20609;-74
2022/05/12 03:35:11;;;;;;;4.17;2.03;;;16.60;96.90;;;;;;5011376;28;20264;-74
2022/05/12 03:37:38;;;;;;;3.80;2.00;;;16.60;97.10;;;;;;5011720;28;20609;-75
2022/05/12 03:40:05;;;;;;;5.30;2.13;;;16.50;97.30;;;;;;5011623;28;20535;-74
2022/05/12 03:42:31;;;;;;;3.10;1.80;;;16.50;97.50;;;;;;5026215;28;20605;-74
2022/05/12 03:44:59;;;;;;;3.47;2.17;;;16.40;97.50;;;;;;5011433;28;20186;-74
2022/05/12 03:47:27;;;;;;;4.47;1.92;;;16.40;97.60;;;;;;5010692;28;20947;-75
2022/05/12 03:49:57;;;;;;;2.90;2.22;;;16.30;97.80;;;;;;5010224;28;20197;-74
2022/05/12 03:52:23;;;;;;;3.53;2.08;;;16.30;98.20;;;;;;5011643;28;20582;-74
2022/05/12 03:54:49;;;;;;;3.35;1.88;;;16.20;98.30;;;;;;5011129;28;20167;-74
2022/05/12 03:57:16;;;;;;;3.35;2.10;;;16.20;98.50;;;;;;5009754;28;20173;-74
2022/05/12 03:59:43;;;;;;;5.45;2.05;;;16.10;98.60;;;;;;5011198;28;20163;-75
2022/05/12 04:02:13;;;;;;;3.38;2.10;;;16.10;98.70;;;;;;5010213;28;20170;-75
2022/05/12 04:04:42;;;;;;;3.25;2.30;;;16.10;98.90;;;;;;5010923;28;20559;-74
2022/05/12 04:07:11;;;;;;;4.68;2.55;;;16.10;99.00;;;;;;5026629;28;20547;-74
2022/05/12 04:09:37;;;;;;;3.58;1.90;;;16.00;99.20;;;;;;5011034;28;20166;-74
2022/05/12 04:12:05;;;;;;;3.05;1.98;;;16.00;99.40;;;;;;5011305;28;20165;-75
2022/05/12 04:14:32;;;;;;;5.15;2.05;;;16.00;99.70;;;;;;5010876;28;20197;-74
2022/05/12 04:16:59;;;;;;;4.18;2.00;;;16.00;99.80;;;;;;5011115;28;20272;-74
2022/05/12 04:19:24;;;;;;;5.53;2.22;;;16.00;99.90;;;;;;5010195;28;20552;-74
2022/05/12 04:21:52;;;;;;;3.67;2.47;;;16.00;99.90;;;;;;5010961;28;20182;-75
2022/05/12 04:24:19;;;;;;;6.82;2.35;;;16.00;99.90;;;;;;5009490;28;20224;-74
2022/05/12 04:26:46;;;;;;;2.95;1.60;;;15.90;99.90;;;;;;5011085;28;20181;-74
2022/05/12 04:29:12;;;;;;;4.43;2.70;;;15.90;99.90;;;;;;5011191;28;20177;-74
2022/05/12 04:31:39;;;;;;;4.43;2.80;;;16.00;99.90;;;;;;5009671;28;20166;-74
2022/05/12 04:36:49;;;;;;;3.13;2.10;;;15.90;99.90;;;;;;5011069;28;20174;-75
2022/05/12 04:39:15;;;;;;;6.27;2.90;;;15.90;99.90;;;;;;5026462;28;20167;-75
2022/05/12 04:41:41;;;;;;;5.20;2.87;;;15.90;99.90;;;;;;5009619;28;20182;-75
2022/05/12 04:44:07;;;;;;;3.75;2.15;;;15.90;99.90;;;;;;5010363;28;20629;-75
2022/05/12 04:46:34;;;;;;;4.40;2.30;;;16.00;99.90;;;;;;5011096;28;20244;-75
2022/05/12 04:49:01;;;;;;;3.90;2.10;;;16.00;99.90;;;;;;5010694;28;20232;-75
2022/05/12 04:51:26;;;;;;;5.18;2.78;;;16.00;99.90;;;;;;5010747;28;20668;-75
2022/05/12 04:53:52;;;;;;;5.70;2.67;;;16.00;99.90;;;;;;5009147;28;20309;-74
2022/05/12 04:56:18;;;;;;;4.20;2.40;;;16.10;99.90;;;;;;5009653;28;20666;-75
2022/05/12 04:58:44;;;;;;;5.47;2.47;;;16.10;99.90;;;;;;5011028;28;20166;-75
2022/05/12 05:01:10;;;;;;;4.57;2.30;;;16.10;99.90;;;;;;5009127;28;20577;-74
2022/05/12 05:03:35;;;;;;;3.23;2.20;;;16.20;99.90;;;;;;5010285;28;20198;-75
2022/05/12 05:06:01;;;;;;;6.20;2.20;;;16.20;99.90;;;;;;5010929;28;20246;-74
2022/05/12 05:08:27;;;;;;;4.63;1.97;;;16.30;99.90;;;;;;5012492;28;20531;-75
2022/05/12 05:10:53;;;;;;;4.50;1.70;;;16.30;99.90;;;;;;5013869;28;20569;-75
2022/05/12 05:13:21;;;;;;;5.57;2.50;;;16.30;99.90;;;;;;5012755;28;20647;-75
2022/05/12 05:15:48;;;;;;;3.80;1.63;;;16.40;99.90;;;;;;5014345;28;20282;-76
2022/05/12 05:18:16;;;;;;;5.35;2.83;;;16.40;99.90;;;;;;5014325;28;20570;-75
2022/05/12 05:20:43;;;;;;;4.68;2.35;;;16.40;99.90;;;;;;5013787;28;20178;-75
2022/05/12 05:23:09;;;;;;;3.80;2.30;;;16.50;99.90;;;;;;5011853;28;20217;-76
2022/05/12 05:25:35;;;;;;;5.20;2.17;;;16.50;99.90;;;;;;5013991;28;20557;-75
2022/05/12 05:28:01;;;;;;;3.43;2.67;;;16.60;99.90;;;;;;5014256;28;20205;-75
2022/05/12 05:30:27;;;;;;;5.97;2.43;;;16.60;99.90;;;;;;5013699;28;20185;-75
2022/05/12 05:32:54;;;;;;;2.90;1.97;;;16.70;99.90;;;;;;5012536;28;20612;-75
2022/05/12 05:35:21;;;;;;;6.60;2.75;;;16.80;99.90;;;;;;5029227;28;20935;-75
2022/05/12 05:37:48;;;;;;;6.60;2.00;;;16.90;99.90;;;;;;5013625;28;20257;-75
2022/05/12 05:40:16;;;;;;;6.23;2.70;;;16.90;99.90;;;;;;5013164;28;20562;-74
2022/05/12 05:42:43;;;;;;;4.10;2.13;;;17.00;99.90;;;;;;5013506;28;20942;-75
2022/05/12 05:45:12;;;;;;;6.83;2.30;;;17.20;99.90;;;;;;5012185;28;20593;-75
2022/05/12 05:47:45;;;;;;;4.63;2.13;;;17.40;99.90;;;;;;5013387;28;20643;-75
2022/05/12 05:53:35;;;;;;;4.77;1.80;;;18.10;99.90;;;;;;5004631;28;21025;-75
2022/05/12 05:56:04;;;;;;;5.07;1.30;;;19.20;99.90;;;;;;5013917;28;20569;-76
2022/05/12 05:58:30;;;;;;;4.97;1.60;;;20.20;99.90;;;;;;5013321;28;20565;-76
2022/05/12 06:00:56;;;;;;;3.80;1.20;;;21.40;99.90;;;;;;5012142;28;20600;-76
2022/05/12 06:03:23;;;;;;;5.80;1.30;;;22.50;99.90;;;;;;5009227;28;20651;-75
2022/05/12 06:05:49;;;;;;;4.90;1.40;;;23.60;99.90;;;;;;5011285;28;20615;-74
2022/05/12 06:08:17;;;;;;;4.60;1.07;;;24.70;99.90;;;;;;5013156;28;21124;-74
2022/05/12 06:10:44;;;;;;;4.00;1.30;;;25.70;99.30;;;;;;5038814;28;20174;-75
2022/05/12 06:13:11;;;;;;;2.70;1.00;;;26.70;97.40;;;;;;5020491;28;20612;-74
2022/05/12 06:15:37;;;;;;;4.40;1.20;;;27.70;95.40;;;;;;5019966;28;20619;-74
2022/05/12 06:18:14;;;;;;;4.33;1.00;;;28.50;93.60;;;;;;5017480;28;20577;-74
2022/05/12 06:20:41;;;;;;;4.17;0.80;;;29.20;90.60;;;;;;5032673;28;20181;-73
2022/05/12 06:23:08;;;;;;;2.50;1.00;;;30.00;90.20;;;;;;5032072;28;20742;-74
2022/05/12 06:25:35;;;;;;;3.20;0.90;;;30.50;85.50;;;;;;5032762;28;20556;-74
2022/05/12 06:28:00;;;;;;;7.60;1.23;;;31.10;82.20;;;;;;5032889;28;20923;-75
2022/05/12 06:30:29;;;;;;;2.60;0.80;;;31.70;78.30;;;;;;5010668;28;20675;-74
2022/05/12 06:32:56;;;;;;;5.07;1.40;;;32.00;74.70;;;;;;5011312;28;20658;-75
2022/05/12 06:35:24;;;;;;;2.17;0.90;;;32.30;70.40;;;;;;5011549;28;20660;-75
2022/05/12 06:37:50;;;;;;;4.10;0.83;;;32.20;66.20;;;;;;5007282;28;20959;-75
2022/05/12 06:40:18;;;;;;;3.87;1.00;;;32.30;63.90;;;;;;5009721;28;20600;-75
2022/05/12 06:42:44;;;;;;;7.43;1.07;;;32.50;62.70;;;;;;5012335;28;20700;-75
2022/05/12 06:45:12;;;;;;;4.00;0.80;;;32.80;61.30;;;;;;5011928;28;20558;-75
2022/05/12 06:47:45;;;;;;;1.50;0.70;;;33.10;59.70;;;;;;5027810;28;20628;-75
2022/05/12 06:50:11;;;;;;;2.87;0.90;;;33.50;59.00;;;;;;5012379;28;20956;-74
2022/05/12 06:52:37;;;;;;;2.73;0.97;;;33.70;57.70;;;;;;5027279;28;20604;-75
2022/05/12 06:55:03;;;;;;;3.27;0.80;;;33.80;56.00;;;;;;5012212;28;20507;-75
2022/05/12 06:57:29;;;;;;;1.93;0.73;;;34.00;55.30;;;;;;5011394;28;20205;-75
2022/05/12 06:59:55;;;;;;;2.37;0.73;;;34.20;54.70;;;;;;4994458;28;20594;-75
2022/05/12 07:02:22;;;;;;;2.23;0.90;;;34.50;53.90;;;;;;5012292;28;20177;-75
2022/05/12 07:04:52;;;;;;;2.30;0.80;;;34.90;53.20;;;;;;5027035;28;20627;-75
2022/05/12 07:07:20;;;;;;;8.53;1.20;;;35.20;52.20;;;;;;5010465;28;21148;-75
2022/05/12 07:09:47;;;;;;;3.77;1.03;;;35.60;51.70;;;;;;5011931;28;20911;-75
2022/05/12 07:12:13;;;;;;;1.93;0.90;;;35.90;49.90;;;;;;5012175;28;20648;-76
2022/05/12 07:14:39;;;;;;;3.37;0.73;;;36.10;49.50;;;;;;5010351;28;20581;-76
2022/05/12 07:17:05;;;;;;;2.23;0.90;;;36.40;48.80;;;;;;5011090;28;20581;-75
2022/05/12 07:19:33;;;;;;;2.63;0.80;;;36.70;48.50;;;;;;5011447;28;20684;-75
2022/05/12 07:27:29;;;;;;;2.50;0.70;;;37.30;45.90;;;;;;5008828;28;21021;-76
2022/05/12 07:29:54;;;;;;;2.43;1.00;;;37.40;44.70;;;;;;5006157;28;20577;-76
2022/05/12 07:32:21;;;;;;;2.87;1.07;;;37.40;44.00;;;;;;5009827;28;21012;-75
2022/05/12 07:34:47;;;;;;;2.00;0.87;;;37.00;43.00;;;;;;5011221;28;20245;-75
2022/05/12 07:37:14;;;;;;;2.40;1.13;;;36.40;42.40;;;;;;5011948;28;20679;-75
2022/05/12 07:39:40;;;;;;;4.07;0.80;;;35.70;41.90;;;;;;5011106;28;20188;-75
2022/05/12 07:42:06;;;;;;;5.97;0.80;;;34.90;42.10;;;;;;5011650;28;20604;-75
2022/05/12 07:44:32;;;;;;;3.03;1.43;;;34.40;42.30;;;;;;5010965;28;20194;-74
2022/05/12 07:47:03;;;;;;;2.17;0.97;;;34.00;42.70;;;;;;5011804;28;20174;-74
2022/05/12 07:49:32;;;;;;;2.20;0.93;;;33.80;42.80;;;;;;5011731;28;20602;-75
2022/05/12 07:51:59;;;;;;;3.97;0.93;;;33.80;43.80;;;;;;5010101;28;20567;-74
2022/05/12 07:54:26;;;;;;;3.27;2.00;;;33.70;43.40;;;;;;5011110;28;20586;-74
2022/05/12 07:56:51;;;;;;;3.60;1.53;;;33.50;43.10;;;;;;5011520;28;20940;-74
2022/05/12 07:59:35;;;;;;;2.87;1.50;;;33.40;43.40;;;;;;5010219;28;20575;-74
2022/05/12 08:02:01;;;;;;;2.53;1.10;;;33.50;43.80;;;;;;5013669;28;20580;-73
2022/05/12 08:04:28;;;;;;;4.50;1.07;;;33.80;44.00;;;;;;5010413;28;21247;-73
2022/05/12 08:06:54;;;;;;;2.80;1.10;;;34.20;43.90;;;;;;5010611;28;20941;-73
2022/05/12 08:09:20;;;;;;;3.20;1.00;;;34.20;43.10;;;;;;5005439;28;20639;-73
2022/05/12 08:11:46;;;;;;;3.80;1.30;;;34.20;43.00;;;;;;5010729;28;20606;-74
2022/05/12 08:14:12;;;;;;;2.20;0.80;;;34.40;43.10;;;;;;5010523;28;20618;-74
2022/05/12 08:16:38;;;;;;;2.80;1.20;;;34.70;43.00;;;;;;5007081;28;20176;-74
2022/05/12 08:19:04;;;;;;;2.23;0.80;;;35.00;42.90;;;;;;5009733;28;20184;-74
2022/05/12 08:21:30;;;;;;;3.17;1.00;;;34.90;42.00;;;;;;5007052;28;20592;-75
2022/05/12 08:23:56;;;;;;;3.23;0.97;;;35.00;42.60;;;;;;5011129;28;20639;-75
2022/05/12 08:26:23;;;;;;;2.63;1.27;;;35.20;41.90;;;;;;5011238;28;20543;-75
2022/05/12 08:28:50;;;;;;;3.67;1.20;;;35.20;41.00;;;;;;5011258;28;20171;-75
2022/05/12 08:31:20;;;;;;;5.30;1.27;;;35.10;40.90;;;;;;5010060;28;20652;-75
2022/05/12 08:33:45;;;;;;;4.90;1.00;;;35.20;40.90;;;;;;5009121;28;20650;-74
2022/05/12 08:36:11;;;;;;;3.90;1.67;;;34.90;40.00;;;;;;5010131;28;20983;-74
2022/05/12 08:38:40;;;;;;;4.50;1.40;;;34.30;39.10;;;;;;5009902;28;20573;-74
2022/05/12 08:41:24;;;;;;;4.90;1.60;;;33.60;38.90;;;;;;5026317;28;20561;-74
2022/05/12 08:44:00;;;;;;;3.80;1.10;;;32.90;39.60;;;;;;4996539;28;20643;-74
2022/05/12 08:46:45;;;;;;;2.53;1.00;;;32.70;40.80;;;;;;5030161;28;20618;-74
2022/05/12 08:49:29;;;;;;;3.70;1.00;;;32.90;41.40;;;;;;5013941;28;20577;-74
2022/05/12 08:52:27;;;;;;;4.50;1.30;;;33.10;41.20;;;;;;5014212;28;20575;-74
2022/05/12 08:55:02;;;;;;;3.00;0.97;;;33.50;41.50;;;;;;5002126;28;20597;-73
2022/05/12 08:57:39;;;;;;;2.77;0.93;;;34.00;41.50;;;;;;5003002;28;20579;-74
2022/05/12 09:00:11;;;;;;;2.97;0.97;;;34.60;41.00;;;;;;5010507;28;20594;-74
2022/05/12 09:03:15;;;;;;;2.20;0.90;;;35.00;41.30;;;;;;5009197;28;21069;-74
2022/05/12 09:05:46;;;;;;;3.37;1.20;;;35.60;41.00;;;;;;4981233;28;20588;-74
2022/05/12 09:08:26;;;;;;;5.10;1.40;;;35.80;39.90;;;;;;5014444;28;20896;-73
2022/05/12 09:11:01;;;;;;;2.57;0.87;;;35.70;38.40;;;;;;5013995;28;20576;-73
2022/05/12 09:13:51;;;;;;;2.63;0.80;;;35.40;38.20;;;;;;5013801;28;20591;-73
2022/05/12 09:16:28;;;;;;;2.60;0.90;;;35.30;38.30;;;;;;5013919;28;20576;-73
2022/05/12 09:18:54;;;;;;;3.20;1.30;;;35.50;38.80;;;;;;5014438;28;20614;-73
2022/05/12 09:21:33;;;;;;;3.67;1.10;;;35.60;38.50;;;;;;5009082;28;20603;-73
2022/05/12 09:24:00;;;;;;;3.60;1.17;;;35.50;37.70;;;;;;5006739;28;20653;-73
2022/05/12 09:26:37;;;;;;;2.70;1.20;;;35.30;37.70;;;;;;5014305;28;20580;-73
2022/05/12 09:29:21;;;;;;;2.53;1.03;;;35.50;37.60;;;;;;5007859;28;20658;-73
2022/05/12 09:31:53;;;;;;;2.43;1.00;;;35.80;37.90;;;;;;5013652;28;21115;-73
2022/05/12 09:34:21;;;;;;;2.03;0.70;;;36.20;37.80;;;;;;5028912;28;20611;-73
2022/05/12 09:36:47;;;;;;;3.40;1.53;;;36.50;37.70;;;;;;5014211;28;20585;-73
2022/05/12 09:39:36;;;;;;;2.40;0.80;;;36.60;36.70;;;;;;5012724;28;20614;-73
2022/05/12 09:42:03;;;;;;;2.20;0.90;;;36.40;35.30;;;;;;5014107;28;20177;-74
2022/05/12 09:44:32;;;;;;;3.63;0.90;;;35.90;35.30;;;;;;5013233;28;20623;-73
2022/05/12 09:47:12;;;;;;;2.60;0.97;;;35.40;35.20;;;;;;5013469;28;20570;-74
2022/05/12 09:49:44;;;;;;;1.93;0.83;;;35.20;35.70;;;;;;5012606;28;20915;-73
2022/05/12 09:52:22;;;;;;;2.40;0.80;;;35.30;36.70;;;;;;5012353;28;20580;-73
2022/05/12 09:54:48;;;;;;;2.40;0.70;;;35.50;36.70;;;;;;5012671;28;20579;-72
2022/05/12 09:57:26;;;;;;;2.20;0.87;;;35.80;36.30;;;;;;5013932;28;20569;-73
2022/05/12 09:59:56;;;;;;;2.13;0.70;;;35.90;36.20;;;;;;5013566;28;20600;-72
2022/05/12 10:08:17;;;;;;;2.60;0.70;;;35.70;34.40;;;;;;5012009;28;20646;-73
2022/05/12 10:10:45;;;;;;;2.17;0.70;;;35.10;33.90;;;;;;5013286;28;20570;-73
2022/05/12 10:13:45;;;;;;;3.80;0.80;;;34.50;34.10;;;;;;5012948;28;20616;-72
2022/05/12 10:16:16;;;;;;;4.17;1.00;;;33.90;34.70;;;;;;5008723;28;20607;-73
2022/05/12 10:18:49;;;;;;;2.70;0.90;;;33.80;35.70;;;;;;5011655;28;20574;-73
2022/05/12 10:21:42;;;;;;;2.23;1.00;;;33.90;36.20;;;;;;5028375;28;21088;-74
2022/05/12 10:24:50;;;;;;;2.37;1.07;;;34.10;35.90;;;;;;5004955;28;20658;-73
2022/05/12 10:27:25;;;;;;;3.60;0.90;;;34.20;35.90;;;;;;4990217;28;20611;-73
2022/05/12 10:30:18;;;;;;;3.07;1.07;;;34.40;36.10;;;;;;5012480;28;20642;-73
2022/05/12 10:33:02;;;;;;;2.53;0.83;;;34.80;36.20;;;;;;5012631;28;20621;-73
2022/05/12 10:35:51;;;;;;;3.37;0.90;;;35.20;36.00;;;;;;5012868;28;20580;-73
2022/05/12 10:38:33;;;;;;;2.17;0.90;;;35.60;35.70;;;;;;5013373;28;20577;-73
2022/05/12 10:41:25;;;;;;;3.37;1.40;;;36.00;35.40;;;;;;4994286;28;20577;-73
2022/05/12 10:44:25;;;;;;;5.20;1.07;;;36.30;35.30;;;;;;4992221;28;20621;-73
2022/05/12 10:47:11;;;;;;;2.47;0.80;;;36.50;35.50;;;;;;4975915;28;20653;-73
2022/05/12 10:49:47;;;;;;;5.50;1.10;;;36.60;34.70;;;;;;4991938;28;20730;-73
2022/05/12 10:52:39;;;;;;;3.47;0.90;;;36.60;34.00;;;;;;4993025;28;20566;-73
2022/05/12 10:55:26;;;;;;;2.00;0.80;;;36.20;33.60;;;;;;4992737;28;20559;-73
2022/05/12 10:58:00;;;;;;;2.77;1.00;;;35.70;33.10;;;;;;4992625;28;20576;-72
2022/05/12 11:00:41;;;;;;;2.93;1.00;;;35.40;33.40;;;;;;4975520;28;20576;-73
2022/05/12 11:03:16;;;;;;;1.80;0.67;;;35.10;33.70;;;;;;4992540;28;20634;-73
2022/05/12 11:05:54;;;;;;;2.03;0.80;;;34.90;34.20;;;;;;4993089;28;20921;-73
2022/05/12 11:08:31;;;;;;;1.73;1.00;;;34.60;33.60;;;;;;4992994;28;20584;-73
2022/05/12 11:11:05;;;;;;;4.60;0.80;;;34.30;33.80;;;;;;4992205;28;20591;-72
2022/05/12 11:13:48;;;;;;;3.30;1.00;;;33.90;33.90;;;;;;5005053;28;20625;-72
2022/05/12 11:16:19;;;;;;;3.70;1.20;;;33.60;34.60;;;;;;5010801;28;20608;-72
2022/05/12 11:19:02;;;;;;;3.43;1.00;;;33.40;33.60;;;;;;5006046;28;20590;-72
2022/05/12 11:21:29;;;;;;;2.33;0.90;;;33.10;34.00;;;;;;5020947;28;20688;-72
2022/05/12 11:24:28;;;;;;;3.60;1.00;;;32.70;33.80;;;;;;5008530;28;20741;-72
2022/05/12 11:27:13;;;;;;;2.87;1.00;;;32.40;34.00;;;;;;5006365;28;20948;-72
2022/05/12 11:30:33;;;;;;;3.43;1.00;;;32.10;34.30;;;;;;5021076;28;20580;-72
2022/05/12 11:33:06;;;;;;;3.13;1.10;;;31.90;34.60;;;;;;4996414;28;20608;-73
2022/05/12 11:35:38;;;;;;;2.30;0.80;;;31.90;35.10;;;;;;5031461;28;20960;-73
2022/05/12 11:38:07;;;;;;;3.50;1.40;;;32.00;35.30;;;;;;5031435;28;21026;-73
2022/05/12 11:40:40;;;;;;;2.43;0.87;;;32.00;35.00;;;;;;5028622;28;20580;-72
2022/05/12 11:46:17;;;;;;;3.10;0.90;;;32.00;35.00;;;;;;4998525;28;20675;-73
2022/05/12 11:49:20;;;;;;;3.83;1.00;;;31.80;34.80;;;;;;5010791;28;20593;-73
2022/05/12 11:52:09;;;;;;;2.60;0.80;;;31.70;34.50;;;;;;5003978;28;21253;-73
2022/05/12 11:54:50;;;;;;;2.90;0.90;;;31.40;34.40;;;;;;5009480;28;21222;-72
2022/05/12 11:57:22;;;;;;;2.80;1.03;;;31.20;34.20;;;;;;4993298;28;20598;-73
2022/05/12 11:59:54;;;;;;;2.40;1.30;;;30.90;34.30;;;;;;5010912;28;20593;-73
2022/05/12 12:02:29;;;;;;;2.50;1.00;;;30.70;34.40;;;;;;5010803;28;20679;-72
2022/05/12 12:05:26;;;;;;;2.83;1.40;;;30.40;34.70;;;;;;5011051;28;20616;-75
2022/05/12 12:07:53;;;;;;;6.13;1.33;;;30.30;35.20;;;;;;4990247;28;20585;-75
2022/05/12 12:10:24;;;;;;;3.00;1.30;;;30.30;35.50;;;;;;5010285;28;20562;-75
2022/05/12 12:12:58;;;;;;;4.37;1.10;;;30.30;35.30;;;;;;5010768;28;20624;-75
2022/05/12 12:15:24;;;;;;;3.40;0.90;;;30.20;35.20;;;;;;5009707;28;20568;-75
2022/05/12 12:17:51;;;;;;;7.07;1.70;;;30.20;35.50;;;;;;5010393;28;20586;-75
2022/05/12 12:20:31;;;;;;;11.97;1.23;;;30.10;35.50;;;;;;5001292;28;20253;-75
2022/05/12 12:23:27;;;;;;;1.60;0.70;;;30.00;35.80;;;;;;4990417;28;20649;-74
2022/05/12 12:26:09;;;;;;;2.33;0.80;;;30.10;35.90;;;;;;4973483;28;20581;-74
2022/05/12 12:29:02;;;;;;;1.80;0.90;;;29.90;35.60;;;;;;4991598;28;20661;-74
2022/05/12 12:31:37;;;;;;;4.67;1.30;;;29.70;35.50;;;;;;4990971;28;20643;-75
2022/05/12 12:34:45;;;;;;;5.60;1.60;;;29.60;35.70;;;;;;4991002;28;20600;-75
2022/05/12 12:37:11;;;;;;;2.87;1.60;;;29.40;36.00;;;;;;4985255;28;20694;-75
2022/05/12 12:39:48;;;;;;;2.73;1.13;;;29.30;35.90;;;;;;5001888;28;20730;-75
2022/05/12 12:42:41;;;;;;;2.87;1.37;;;29.10;35.90;;;;;;5010655;28;20178;-75
2022/05/12 12:45:15;;;;;;;4.23;1.07;;;28.90;36.30;;;;;;5010388;28;20613;-74
2022/05/12 12:47:55;;;;;;;4.97;1.30;;;28.70;36.10;;;;;;5010372;28;20568;-74
2022/05/12 12:50:43;;;;;;;2.00;0.90;;;28.50;36.10;;;;;;5010647;28;20569;-74
2022/05/12 12:56:32;;;;;;;2.53;1.40;;;28.20;36.80;;;;;;5003316;28;20632;-74
2022/05/12 12:59:00;;;;;;;4.07;1.53;;;27.90;36.60;;;;;;5003918;28;20590;-74
2022/05/12 13:01:50;;;;;;;2.43;1.17;;;27.80;36.80;;;;;;5006716;28;21155;-74
2022/05/12 13:04:34;;;;;;;4.33;1.30;;;27.50;37.20;;;;;;5009588;28;21004;-74
2022/05/12 13:07:06;;;;;;;2.00;0.93;;;27.30;37.40;;;;;;5009110;28;20565;-75
2022/05/12 13:09:37;;;;;;;3.17;1.00;;;27.20;37.50;;;;;;5006942;28;20589;-75
2022/05/12 13:12:17;;;;;;;3.13;1.07;;;27.00;37.60;;;;;;5025575;28;20574;-74
2022/05/12 13:14:44;;;;;;;2.47;1.10;;;26.80;38.10;;;;;;5008628;28;20623;-73
2022/05/12 13:17:19;;;;;;;2.23;1.37;;;26.60;37.90;;;;;;5009497;28;20580;-74
2022/05/12 13:19:45;;;;;;;4.63;1.17;;;26.60;38.20;;;;;;5008873;28;20576;-74
2022/05/12 13:22:24;;;;;;;12.13;1.50;;;26.50;38.20;;;;;;5009739;28;20577;-74
2022/05/12 13:24:50;;;;;;;5.83;1.37;;;26.50;38.70;;;;;;5009577;28;21004;-74
2022/05/12 13:27:19;;;;;;;3.93;1.73;;;26.60;38.70;;;;;;5007313;28;20585;-74
2022/05/12 13:29:46;;;;;;;3.93;1.47;;;26.50;38.90;;;;;;5011828;28;20573;-74
2022/05/12 13:32:38;;;;;;;3.80;1.80;;;26.60;39.10;;;;;;5012252;28;20619;-74